Terminal Aerodrome Forecast
Issued by NWS

Home | Current Version | Previous Version | Text Only | Print | Product List | Glossary On
Versions: 1 2 3 4 5 6 7 8 9 10 11 12 13 14 15 16 17 18 19
329
FTUS43 KGRR 061731
TAFJXN
TAF
KJXN 061731Z 0618/0718 28006KT P6SM FEW250
     FM070100 18004KT P6SM FEW250
     FM071100 24008KT P6SM SCT250
     FM071300 26008KT P6SM -SHRA BKN090
     FM071600 30010KT 6SM -SHRA VCTS BKN035CB=

USA.gov is the U.S. government's official web portal to all federal, state and local government web resources and services.